Time;durP1;ratioP1;P1;durP2;ratioP2;P2;SDS_P1;SDS_P2;PMS_P1;PMS_P2;Temp;Humidity;BMP_temperature;BMP_pressure;BME280_temperature;BME280_humidity;BME280_pressure;Samples;Min_cycle;Max_cycle;Signal;HPM_P1;HPM_P2
2021/03/22 00:01:25;;;;;;;21.85;3.83;;;8.90;80.50;;;;;;5072931;28;20074;-67
2021/03/22 00:03:51;;;;;;;27.27;5.20;;;8.90;80.60;;;;;;5071690;28;20475;-67
2021/03/22 00:06:17;;;;;;;24.85;4.72;;;8.90;80.70;;;;;;5071645;28;20532;-66
2021/03/22 00:08:42;;;;;;;26.45;5.18;;;8.90;80.80;;;;;;5072804;28;20510;-66
2021/03/22 00:11:08;;;;;;;24.75;4.80;;;8.90;80.80;;;;;;5058294;28;20033;-67
2021/03/22 00:13:34;;;;;;;28.25;5.32;;;8.90;81.00;;;;;;5072080;28;20043;-66
2021/03/22 00:16:04;;;;;;;29.58;5.78;;;8.90;81.20;;;;;;5072326;28;20380;-66
2021/03/22 00:18:35;;;;;;;37.15;7.13;;;8.90;81.30;;;;;;5072608;28;20055;-66
2021/03/22 00:21:02;;;;;;;17.55;3.70;;;8.90;81.50;;;;;;5072102;28;20032;-66
2021/03/22 00:23:29;;;;;;;32.47;6.47;;;8.90;81.50;;;;;;5072205;28;20513;-66
2021/03/22 00:25:55;;;;;;;30.85;4.85;;;8.90;81.70;;;;;;5072760;28;20039;-66
2021/03/22 00:28:22;;;;;;;30.20;5.00;;;8.90;81.70;;;;;;5071427;28;20103;-66
2021/03/22 00:30:49;;;;;;;20.77;4.88;;;8.90;81.80;;;;;;5072809;28;20106;-66
2021/03/22 00:33:16;;;;;;;27.60;5.90;;;8.80;81.90;;;;;;5071899;28;20032;-66
2021/03/22 00:35:42;;;;;;;27.15;4.15;;;8.80;82.00;;;;;;5072025;28;20036;-66
2021/03/22 00:38:09;;;;;;;26.50;6.05;;;8.80;81.80;;;;;;5072503;28;20033;-66
2021/03/22 00:40:38;;;;;;;25.17;3.95;;;8.80;81.80;;;;;;5071594;28;20037;-66
2021/03/22 00:43:05;;;;;;;15.77;3.30;;;8.80;81.80;;;;;;5072573;28;20041;-66
2021/03/22 00:45:31;;;;;;;21.90;4.75;;;8.80;81.90;;;;;;5072032;28;20033;-66
2021/03/22 00:47:57;;;;;;;19.77;4.03;;;8.80;81.90;;;;;;5071694;28;20035;-66
2021/03/22 00:50:38;;;;;;;26.92;5.00;;;8.70;81.90;;;;;;5072113;28;20040;-66
2021/03/22 00:53:06;;;;;;;17.42;4.15;;;8.70;82.10;;;;;;5059828;28;20035;-66
2021/03/22 00:55:32;;;;;;;25.05;5.10;;;8.70;82.20;;;;;;5070013;28;20025;-66
2021/03/22 00:57:58;;;;;;;24.25;5.47;;;8.70;82.30;;;;;;5074460;28;20613;-66
2021/03/22 01:00:38;;;;;;;29.55;5.68;;;8.70;82.40;;;;;;5076006;28;20116;-66
2021/03/22 01:03:06;;;;;;;7.22;2.67;;;8.70;82.90;;;;;;5074989;28;20025;-66
2021/03/22 01:05:32;;;;;;;11.05;2.90;;;8.80;82.80;;;;;;5075899;28;20033;-66
2021/03/22 01:07:57;;;;;;;10.68;3.28;;;8.70;82.70;;;;;;5075697;28;20040;-66
2021/03/22 01:10:32;;;;;;;7.05;2.25;;;8.70;82.70;;;;;;5075044;28;20471;-66
2021/03/22 01:13:02;;;;;;;7.70;1.92;;;8.70;82.70;;;;;;5075674;28;20073;-66
2021/03/22 01:15:28;;;;;;;16.42;4.07;;;8.70;82.60;;;;;;5075165;28;20051;-66
2021/03/22 01:17:53;;;;;;;10.70;2.20;;;8.70;82.60;;;;;;5074139;28;20025;-66
2021/03/22 01:20:35;;;;;;;18.13;3.00;;;8.70;82.60;;;;;;5075527;28;20082;-66
2021/03/22 01:23:01;;;;;;;7.70;2.30;;;8.70;82.80;;;;;;5074884;28;20059;-66
2021/03/22 01:25:26;;;;;;;22.40;3.42;;;8.70;83.40;;;;;;5075466;28;20028;-66
2021/03/22 01:27:52;;;;;;;7.97;1.83;;;8.60;82.80;;;;;;5075728;28;20070;-66
2021/03/22 01:30:26;;;;;;;16.58;3.10;;;8.60;82.90;;;;;;5074702;28;20356;-66
2021/03/22 01:32:53;;;;;;;15.02;3.08;;;8.60;83.00;;;;;;5075325;28;20028;-66
2021/03/22 01:35:19;;;;;;;4.50;2.25;;;8.60;83.00;;;;;;5075113;28;20115;-67
2021/03/22 01:37:44;;;;;;;6.78;1.52;;;8.60;83.10;;;;;;5074776;28;20460;-66
2021/03/22 01:40:46;;;;;;;17.27;2.05;;;8.60;83.10;;;;;;5075128;28;20396;-66
2021/03/22 01:43:37;;;;;;;12.40;3.58;;;8.70;83.10;;;;;;5074927;28;20033;-66
2021/03/22 01:46:03;;;;;;;4.95;1.48;;;8.70;83.10;;;;;;5075577;28;20031;-66
2021/03/22 01:48:29;;;;;;;6.47;1.85;;;8.70;83.00;;;;;;5075220;28;20115;-66
2021/03/22 01:50:55;;;;;;;9.48;2.75;;;8.70;83.00;;;;;;5074415;28;20768;-66
2021/03/22 01:53:21;;;;;;;11.57;1.85;;;8.70;83.00;;;;;;5074896;28;20153;-66
2021/03/22 01:55:46;;;;;;;10.15;2.33;;;8.70;83.10;;;;;;5074897;28;20357;-66
2021/03/22 01:58:15;;;;;;;12.70;2.83;;;8.70;83.00;;;;;;5073932;28;20126;-66
2021/03/22 02:00:41;;;;;;;9.25;2.05;;;8.80;83.00;;;;;;5074697;28;20036;-66
2021/03/22 02:03:17;;;;;;;16.20;2.05;;;8.80;82.80;;;;;;5074837;28;20107;-66
2021/03/22 02:05:48;;;;;;;18.27;2.03;;;8.80;82.70;;;;;;5074003;28;20064;-66
2021/03/22 02:08:39;;;;;;;9.02;2.13;;;8.80;82.70;;;;;;5060831;28;20099;-66
2021/03/22 02:11:18;;;;;;;5.32;1.75;;;8.80;82.70;;;;;;5074480;28;20086;-66
2021/03/22 02:13:45;;;;;;;15.38;2.42;;;8.80;82.80;;;;;;5074169;28;20024;-66
2021/03/22 02:16:47;;;;;;;14.63;2.28;;;8.80;82.80;;;;;;5074266;28;20024;-66
2021/03/22 02:19:32;;;;;;;21.05;3.08;;;8.80;82.70;;;;;;5074007;28;20040;-66
2021/03/22 02:21:58;;;;;;;12.70;2.17;;;8.90;82.60;;;;;;5062159;28;20112;-66
2021/03/22 02:24:42;;;;;;;16.67;1.35;;;8.90;82.50;;;;;;5074260;28;20090;-66
2021/03/22 02:27:32;;;;;;;9.70;1.80;;;8.90;82.40;;;;;;5073513;28;20025;-66
2021/03/22 02:30:20;;;;;;;12.93;2.15;;;8.90;82.30;;;;;;5074590;28;20028;-66
2021/03/22 02:33:10;;;;;;;10.50;1.40;;;8.90;82.20;;;;;;5073972;28;20052;-66
2021/03/22 02:35:42;;;;;;;15.38;2.22;;;8.90;82.30;;;;;;5074180;28;20048;-66
2021/03/22 02:38:11;;;;;;;6.60;1.52;;;9.00;82.20;;;;;;5073873;28;20468;-66
2021/03/22 02:40:58;;;;;;;4.63;1.38;;;9.00;82.10;;;;;;5073039;28;20024;-66
2021/03/22 02:43:23;;;;;;;22.40;2.00;;;9.00;82.00;;;;;;5074225;28;20029;-66
2021/03/22 02:45:49;;;;;;;11.35;1.73;;;9.00;82.00;;;;;;5073602;28;20039;-66
2021/03/22 02:48:26;;;;;;;15.55;1.73;;;9.00;82.00;;;;;;5073354;28;20120;-66
2021/03/22 02:50:56;;;;;;;11.98;2.15;;;9.00;82.00;;;;;;5072260;28;20074;-66
2021/03/22 02:53:54;;;;;;;16.65;2.65;;;9.00;81.90;;;;;;5071431;28;20028;-65
2021/03/22 02:56:32;;;;;;;7.13;1.40;;;9.10;81.80;;;;;;5072874;28;20106;-66
2021/03/22 02:59:08;;;;;;;14.63;3.95;;;9.10;81.60;;;;;;5068269;28;20049;-67
2021/03/22 03:01:42;;;;;;;13.98;1.60;;;9.20;81.40;;;;;;5065994;28;21669;-65
2021/03/22 03:04:12;;;;;;;9.80;1.73;;;9.20;81.30;;;;;;5068878;28;20032;-65
2021/03/22 03:06:56;;;;;;;7.32;1.30;;;9.20;81.10;;;;;;5068192;28;20486;-66
2021/03/22 03:09:25;;;;;;;14.18;1.90;;;9.20;80.90;;;;;;5054356;28;20040;-70
2021/03/22 03:11:52;;;;;;;7.97;1.85;;;9.20;80.70;;;;;;5067289;28;20028;-65
2021/03/22 03:14:18;;;;;;;5.78;1.85;;;9.20;80.70;;;;;;5062994;28;20555;-65
2021/03/22 03:16:44;;;;;;;3.47;1.70;;;9.20;80.30;;;;;;5072653;28;20039;-65
2021/03/22 03:19:10;;;;;;;10.88;1.33;;;9.20;80.30;;;;;;5072227;28;20041;-65
2021/03/22 03:21:39;;;;;;;15.77;1.92;;;9.20;80.20;;;;;;5059261;28;20031;-65
2021/03/22 03:24:07;;;;;;;25.30;4.00;;;9.20;80.20;;;;;;5052779;28;20028;-65
2021/03/22 03:26:32;;;;;;;9.05;2.13;;;9.20;80.00;;;;;;5065390;28;20029;-65
2021/03/22 03:28:58;;;;;;;15.63;2.17;;;9.20;80.10;;;;;;5072532;28;20356;-65
2021/03/22 03:31:24;;;;;;;13.90;1.95;;;9.20;80.10;;;;;;5072039;28;20594;-65
2021/03/22 03:33:52;;;;;;;8.13;1.90;;;9.20;80.10;;;;;;5073060;28;20040;-65
2021/03/22 03:36:18;;;;;;;8.93;1.42;;;9.30;80.00;;;;;;5072439;28;20021;-65
2021/03/22 03:38:44;;;;;;;13.60;1.88;;;9.30;80.10;;;;;;5058583;28;20464;-65
2021/03/22 03:41:10;;;;;;;7.50;1.88;;;9.30;80.00;;;;;;5052990;28;20033;-65
2021/03/22 03:43:37;;;;;;;13.27;1.83;;;9.30;79.90;;;;;;5064332;28;20066;-65
2021/03/22 03:46:03;;;;;;;15.88;1.92;;;9.30;79.70;;;;;;5072985;28;20035;-65
2021/03/22 03:48:28;;;;;;;3.75;0.90;;;9.30;79.70;;;;;;5073107;28;20111;-65
2021/03/22 03:51:02;;;;;;;7.03;1.63;;;9.30;79.60;;;;;;5072361;28;20115;-65
2021/03/22 03:53:28;;;;;;;10.02;1.75;;;9.30;79.60;;;;;;5072694;28;20039;-65
2021/03/22 03:55:56;;;;;;;11.05;1.80;;;9.30;79.40;;;;;;5072493;28;20041;-66
2021/03/22 03:58:22;;;;;;;11.35;1.40;;;9.30;79.30;;;;;;5071969;28;20109;-65
2021/03/22 04:00:49;;;;;;;2.53;1.08;;;9.30;79.30;;;;;;5072862;28;20024;-65
2021/03/22 04:03:17;;;;;;;12.95;2.47;;;9.30;79.20;;;;;;5072736;28;20032;-66
2021/03/22 04:05:43;;;;;;;8.23;1.65;;;9.40;79.00;;;;;;5072224;28;20082;-66
2021/03/22 04:08:09;;;;;;;13.05;1.90;;;9.30;78.80;;;;;;5072456;28;20430;-66
2021/03/22 04:10:35;;;;;;;10.55;1.55;;;9.30;78.80;;;;;;5072426;28;20073;-65
2021/03/22 04:13:01;;;;;;;8.35;2.03;;;9.40;78.60;;;;;;5056480;28;20040;-65
2021/03/22 04:15:27;;;;;;;8.70;1.58;;;9.30;78.50;;;;;;5059875;28;20464;-65
2021/03/22 04:17:52;;;;;;;2.58;0.77;;;9.30;78.40;;;;;;5072522;28;20033;-65
2021/03/22 04:20:19;;;;;;;3.40;1.10;;;9.30;78.60;;;;;;5071617;28;20040;-65
2021/03/22 04:22:44;;;;;;;3.45;0.80;;;9.30;78.70;;;;;;5072396;28;20032;-65
2021/03/22 04:25:11;;;;;;;8.82;1.55;;;9.20;78.60;;;;;;5072531;28;20069;-65
2021/03/22 04:27:36;;;;;;;0.63;0.50;;;9.20;78.80;;;;;;5071996;28;20044;-65
2021/03/22 04:30:09;;;;;;;7.20;0.98;;;9.20;79.10;;;;;;5072118;28;20472;-65
2021/03/22 04:32:35;;;;;;;4.50;1.42;;;9.20;79.20;;;;;;5075758;28;20028;-65
2021/03/22 04:35:00;;;;;;;11.05;1.38;;;9.20;79.50;;;;;;5076598;28;20111;-65
2021/03/22 04:37:26;;;;;;;6.70;1.10;;;9.10;79.50;;;;;;5076394;28;20024;-65
2021/03/22 04:39:52;;;;;;;3.92;1.90;;;9.10;79.60;;;;;;5075956;28;20476;-65
2021/03/22 04:42:17;;;;;;;5.97;1.33;;;9.20;79.50;;;;;;5076007;28;20025;-65
2021/03/22 04:44:43;;;;;;;16.38;2.22;;;9.10;79.40;;;;;;5076449;28;20139;-65
2021/03/22 04:47:09;;;;;;;9.10;1.33;;;9.20;79.10;;;;;;5075685;28;20097;-65
2021/03/22 04:49:34;;;;;;;14.20;1.52;;;9.20;79.00;;;;;;5076265;28;20379;-65
2021/03/22 04:52:00;;;;;;;7.63;1.48;;;9.20;79.00;;;;;;5076010;28;20434;-65
2021/03/22 04:54:26;;;;;;;4.82;1.60;;;9.20;78.70;;;;;;5075413;28;20032;-65
2021/03/22 04:56:52;;;;;;;4.03;0.93;;;9.20;78.70;;;;;;5075935;28;20391;-65
2021/03/22 04:59:17;;;;;;;11.32;2.00;;;9.20;78.80;;;;;;5075558;28;20044;-65
2021/03/22 05:01:43;;;;;;;6.00;1.25;;;9.30;78.90;;;;;;5075372;28;20528;-65
2021/03/22 05:04:09;;;;;;;8.15;1.55;;;9.20;78.70;;;;;;5075947;28;20028;-65
2021/03/22 05:06:34;;;;;;;15.23;1.50;;;9.20;78.60;;;;;;5075995;28;20029;-65
2021/03/22 05:09:00;;;;;;;7.65;1.65;;;9.20;78.70;;;;;;5074731;28;20039;-65
2021/03/22 05:11:27;;;;;;;6.70;1.30;;;9.30;78.60;;;;;;5073169;28;20031;-65
2021/03/22 05:13:53;;;;;;;10.35;1.85;;;9.30;78.60;;;;;;5064129;28;20052;-65
2021/03/22 05:16:19;;;;;;;12.02;2.15;;;9.30;78.50;;;;;;5074920;28;20059;-65
2021/03/22 05:18:45;;;;;;;5.05;1.50;;;9.30;78.40;;;;;;5075464;28;20434;-65
2021/03/22 05:21:11;;;;;;;10.50;2.10;;;9.40;78.40;;;;;;5075794;28;20036;-65
2021/03/22 05:23:39;;;;;;;10.40;2.20;;;9.40;78.20;;;;;;5074603;28;20036;-65
2021/03/22 05:26:06;;;;;;;11.18;1.60;;;9.40;78.70;;;;;;5075591;28;20048;-65
2021/03/22 05:28:33;;;;;;;9.35;0.95;;;9.40;78.10;;;;;;5075483;28;20017;-65
2021/03/22 05:30:59;;;;;;;4.05;1.10;;;9.40;78.20;;;;;;5074671;28;20445;-65
2021/03/22 05:33:25;;;;;;;7.57;1.65;;;9.30;78.20;;;;;;5075410;28;20391;-65
2021/03/22 05:35:54;;;;;;;9.18;2.08;;;9.30;78.40;;;;;;5074803;28;20043;-65
2021/03/22 05:38:21;;;;;;;6.40;1.40;;;9.30;78.40;;;;;;5075166;28;20044;-65
2021/03/22 05:40:55;;;;;;;13.73;1.70;;;9.30;78.30;;;;;;5075045;28;20035;-65
2021/03/22 05:43:41;;;;;;;6.20;1.40;;;9.40;78.30;;;;;;5073881;28;20032;-65
2021/03/22 05:46:19;;;;;;;9.55;1.15;;;9.40;78.20;;;;;;5063215;28;20028;-65
2021/03/22 05:49:02;;;;;;;9.60;1.55;;;9.40;78.20;;;;;;5072506;28;20040;-65
2021/03/22 05:51:43;;;;;;;10.50;1.75;;;9.40;78.20;;;;;;5073687;28;20029;-65
2021/03/22 05:54:12;;;;;;;11.13;1.88;;;9.40;78.80;;;;;;5069926;28;20028;-65
2021/03/22 05:56:40;;;;;;;9.00;2.13;;;9.40;78.00;;;;;;5063371;28;20029;-65
2021/03/22 05:59:28;;;;;;;10.88;1.80;;;9.40;78.00;;;;;;5063922;28;20060;-69
2021/03/22 06:02:00;;;;;;;10.13;1.50;;;9.40;77.90;;;;;;5070175;28;20082;-67
2021/03/22 06:04:37;;;;;;;7.50;1.40;;;9.40;77.80;;;;;;5074321;28;20059;-69
2021/03/22 06:07:04;;;;;;;9.25;1.48;;;9.40;77.80;;;;;;5065296;28;20472;-64
2021/03/22 06:09:37;;;;;;;9.27;1.65;;;9.40;77.90;;;;;;5070952;28;20029;-65
2021/03/22 06:12:22;;;;;;;9.23;1.70;;;9.40;77.80;;;;;;5072551;28;20035;-65
2021/03/22 06:15:14;;;;;;;5.25;1.60;;;9.40;77.80;;;;;;5074137;28;20033;-66
2021/03/22 06:18:03;;;;;;;5.55;1.83;;;9.40;77.60;;;;;;5072247;28;20071;-65
2021/03/22 06:20:37;;;;;;;4.78;1.60;;;9.40;77.40;;;;;;5073152;28;20063;-66
2021/03/22 06:23:25;;;;;;;9.98;1.90;;;9.40;77.40;;;;;;5073437;28;20089;-66
2021/03/22 06:25:51;;;;;;;8.32;1.52;;;9.40;77.50;;;;;;5071818;28;20414;-66
2021/03/22 06:28:20;;;;;;;3.70;0.95;;;9.40;77.60;;;;;;5071061;28;20070;-66
2021/03/22 06:31:04;;;;;;;4.47;0.98;;;9.40;77.70;;;;;;5065081;28;20044;-66
2021/03/22 06:33:33;;;;;;;;;;;9.40;77.80;;;;;;5068952;28;20029;-65
2021/03/22 06:35:58;;;;;;;6.47;1.95;;;9.40;78.00;;;;;;5066570;28;19935;-65
2021/03/22 06:38:25;;;;;;;3.40;0.88;;;9.40;77.80;;;;;;5066272;28;20032;-65
2021/03/22 06:40:50;;;;;;;4.13;1.23;;;9.30;77.90;;;;;;5064340;28;20555;-65
2021/03/22 06:43:22;;;;;;;4.20;0.90;;;9.40;78.00;;;;;;5070489;28;20112;-65
2021/03/22 06:46:10;;;;;;;4.93;1.05;;;9.30;77.80;;;;;;5070602;28;20016;-71
2021/03/22 06:48:37;;;;;;;2.83;1.20;;;9.40;77.80;;;;;;5069891;28;22182;-69
2021/03/22 06:51:03;;;;;;;1.40;0.98;;;9.30;77.80;;;;;;5070957;28;20028;-65
2021/03/22 06:53:31;;;;;;;4.90;1.35;;;9.30;78.10;;;;;;5070318;28;20107;-68
2021/03/22 06:56:08;;;;;;;3.60;1.05;;;9.40;78.10;;;;;;5071025;28;20032;-67
2021/03/22 06:58:34;;;;;;;9.40;1.10;;;9.30;78.20;;;;;;5058137;28;20447;-67
2021/03/22 07:01:28;;;;;;;2.35;0.77;;;9.40;78.10;;;;;;5069024;28;20032;-66
2021/03/22 07:04:13;;;;;;;6.05;1.05;;;9.40;78.20;;;;;;5072444;28;20040;-66
2021/03/22 07:06:38;;;;;;;2.85;0.75;;;9.30;78.20;;;;;;5073525;28;20078;-66
2021/03/22 07:09:04;;;;;;;3.17;1.40;;;9.40;78.30;;;;;;5072775;28;20032;-66
2021/03/22 07:11:30;;;;;;;4.57;1.33;;;9.40;78.10;;;;;;5073438;28;20021;-66
2021/03/22 07:14:00;;;;;;;10.30;1.92;;;9.40;77.90;;;;;;5073513;28;20062;-65
2021/03/22 07:16:29;;;;;;;11.40;1.60;;;9.50;77.60;;;;;;5072469;28;20406;-65
2021/03/22 07:19:17;;;;;;;4.20;1.02;;;9.50;77.40;;;;;;5073522;28;20048;-66
2021/03/22 07:21:48;;;;;;;4.88;1.50;;;9.50;77.40;;;;;;5072455;28;20035;-66
2021/03/22 07:24:24;;;;;;;5.13;1.13;;;9.50;77.20;;;;;;5073378;28;20032;-66
2021/03/22 07:27:00;;;;;;;7.72;1.33;;;9.50;77.20;;;;;;5073001;28;20487;-66
2021/03/22 07:29:42;;;;;;;7.20;1.38;;;9.50;77.30;;;;;;5072416;28;20040;-66
2021/03/22 07:32:26;;;;;;;12.63;1.58;;;9.50;77.30;;;;;;5073110;28;20123;-65
2021/03/22 07:35:13;;;;;;;8.13;1.40;;;9.40;76.90;;;;;;5064019;28;20029;-65
2021/03/22 07:37:56;;;;;;;3.55;0.95;;;9.50;77.40;;;;;;5071675;28;20087;-67
2021/03/22 07:40:45;;;;;;;9.30;2.03;;;9.50;77.60;;;;;;5059961;28;20029;-66
2021/03/22 07:43:26;;;;;;;7.05;1.25;;;9.50;77.60;;;;;;5061159;28;20075;-65
2021/03/22 07:46:17;;;;;;;5.07;1.40;;;9.50;77.70;;;;;;5071546;28;20031;-65
2021/03/22 07:49:26;;;;;;;4.40;1.60;;;9.50;77.50;;;;;;5066555;28;20037;-65
2021/03/22 07:52:06;;;;;;;7.85;1.13;;;9.50;77.60;;;;;;5071746;28;20029;-64
2021/03/22 07:55:06;;;;;;;10.55;2.05;;;9.50;77.50;;;;;;5060029;28;20024;-65
2021/03/22 07:57:50;;;;;;;13.27;2.03;;;9.50;77.70;;;;;;5069911;28;20025;-65
2021/03/22 08:00:38;;;;;;;14.65;1.20;;;9.50;77.70;;;;;;5077850;28;20062;-64
2021/03/22 08:03:23;;;;;;;7.30;1.70;;;9.60;77.80;;;;;;5060240;28;20033;-64
2021/03/22 08:06:26;;;;;;;8.60;2.00;;;9.60;77.90;;;;;;5070375;28;20040;-65
2021/03/22 08:09:07;;;;;;;7.50;1.67;;;9.60;78.00;;;;;;5071578;28;20025;-65
2021/03/22 08:11:32;;;;;;;14.65;1.98;;;9.70;78.10;;;;;;5065807;28;20082;-65
2021/03/22 08:14:23;;;;;;;9.07;1.70;;;9.60;78.20;;;;;;5061858;28;20033;-65
2021/03/22 08:17:15;;;;;;;14.32;2.10;;;9.60;78.40;;;;;;5072279;28;20028;-64
2021/03/22 08:19:56;;;;;;;12.70;2.13;;;9.60;78.50;;;;;;5069268;28;20434;-65
2021/03/22 08:22:29;;;;;;;7.65;1.40;;;9.60;78.60;;;;;;5070409;28;20082;-64
2021/03/22 08:25:00;;;;;;;12.27;1.83;;;9.60;78.80;;;;;;5067041;28;20383;-65
2021/03/22 08:27:29;;;;;;;7.95;1.80;;;9.60;79.00;;;;;;5059979;28;20041;-65
2021/03/22 08:30:23;;;;;;;12.05;2.25;;;9.60;79.20;;;;;;5069701;28;20024;-65
2021/03/22 08:33:09;;;;;;;7.80;1.83;;;9.60;79.40;;;;;;5062364;28;20052;-65
2021/03/22 08:35:43;;;;;;;11.75;2.15;;;9.60;79.50;;;;;;5054311;28;20028;-65
2021/03/22 08:38:12;;;;;;;;;;;9.60;79.50;;;;;;5053937;28;20049;-65
2021/03/22 08:40:51;;;;;;;12.30;1.73;;;9.60;79.40;;;;;;5066447;28;20405;-65
2021/03/22 08:43:27;;;;;;;10.32;1.73;;;9.70;79.50;;;;;;5053275;28;20037;-65
2021/03/22 08:46:17;;;;;;;10.10;1.45;;;9.70;79.50;;;;;;5059874;28;20029;-66
2021/03/22 08:48:43;;;;;;;11.27;2.30;;;9.70;79.50;;;;;;5071655;28;20380;-65
2021/03/22 08:51:26;;;;;;;14.45;1.55;;;9.80;79.50;;;;;;5072241;28;20028;-65
2021/03/22 08:53:54;;;;;;;11.65;2.55;;;9.80;79.60;;;;;;5070727;28;20039;-65
2021/03/22 08:56:40;;;;;;;9.27;1.73;;;9.80;79.40;;;;;;5068187;28;20163;-65
2021/03/22 08:59:17;;;;;;;10.35;2.10;;;9.80;79.50;;;;;;5066645;28;20065;-65
2021/03/22 09:01:43;;;;;;;14.38;2.03;;;9.90;79.30;;;;;;5067981;28;20029;-65
2021/03/22 09:04:19;;;;;;;10.55;1.73;;;9.90;79.10;;;;;;5068911;28;20467;-65
2021/03/22 09:07:23;;;;;;;7.07;1.48;;;9.90;79.00;;;;;;5063991;28;20114;-64
2021/03/22 09:09:50;;;;;;;13.23;1.58;;;10.00;79.00;;;;;;5069641;28;20525;-65
2021/03/22 09:12:43;;;;;;;8.10;1.88;;;10.00;78.60;;;;;;5071589;28;20499;-65
2021/03/22 09:15:20;;;;;;;8.23;1.90;;;10.00;78.40;;;;;;5071254;28;20032;-65
2021/03/22 09:17:49;;;;;;;10.30;1.20;;;10.00;78.00;;;;;;5073011;28;20024;-65
2021/03/22 09:20:17;;;;;;;12.02;1.45;;;10.10;78.50;;;;;;5074266;28;20071;-65
2021/03/22 09:22:48;;;;;;;8.95;1.83;;;10.10;78.00;;;;;;5073745;28;20040;-65
2021/03/22 09:25:45;;;;;;;9.00;1.10;;;10.20;77.80;;;;;;5072239;28;20033;-65
2021/03/22 09:28:23;;;;;;;5.68;1.00;;;10.20;77.80;;;;;;5074160;28;20036;-65
2021/03/22 09:30:57;;;;;;;6.38;1.23;;;10.20;77.90;;;;;;5069035;28;20036;-65
2021/03/22 09:33:49;;;;;;;5.18;1.38;;;10.20;76.90;;;;;;5074779;28;20464;-65
2021/03/22 09:36:30;;;;;;;3.58;0.70;;;10.20;77.20;;;;;;5072358;28;20618;-65
2021/03/22 09:38:56;;;;;;;3.45;0.57;;;10.10;76.50;;;;;;5073271;28;20036;-65
2021/03/22 09:41:58;;;;;;;1.27;0.73;;;10.20;76.60;;;;;;5074996;28;20028;-65
2021/03/22 09:44:30;;;;;;;1.30;0.60;;;10.20;77.10;;;;;;5067789;28;20024;-65
2021/03/22 09:47:15;;;;;;;3.47;1.40;;;10.20;77.30;;;;;;5071619;28;20487;-66
2021/03/22 09:50:01;;;;;;;3.25;0.80;;;10.30;76.60;;;;;;5062215;28;20162;-66
2021/03/22 09:52:59;;;;;;;4.25;1.23;;;10.30;76.10;;;;;;5068157;28;20112;-66
2021/03/22 09:55:28;;;;;;;5.90;0.80;;;10.30;75.00;;;;;;5068998;28;20119;-65
2021/03/22 09:57:56;;;;;;;0.50;0.50;;;10.40;74.90;;;;;;5073767;28;20036;-64
2021/03/22 10:00:27;;;;;;;3.75;0.85;;;10.40;75.00;;;;;;5064570;28;20036;-65
2021/03/22 10:02:59;;;;;;;3.83;1.00;;;10.40;73.60;;;;;;5071480;28;20063;-66
2021/03/22 10:05:46;;;;;;;4.50;1.20;;;10.40;72.00;;;;;;5072938;28;20499;-65
2021/03/22 10:08:12;;;;;;;2.50;0.80;;;10.40;72.00;;;;;;5073743;28;20066;-65
2021/03/22 10:10:41;;;;;;;2.63;0.80;;;10.40;72.60;;;;;;5065635;28;20429;-65
2021/03/22 10:13:19;;;;;;;2.03;0.80;;;10.40;73.70;;;;;;5060917;28;20025;-65
2021/03/22 10:15:56;;;;;;;2.63;0.85;;;10.40;73.50;;;;;;5055356;28;20029;-65
2021/03/22 10:18:31;;;;;;;2.58;0.80;;;10.50;73.20;;;;;;5056714;28;20111;-65
2021/03/22 10:21:07;;;;;;;6.00;1.10;;;10.50;74.80;;;;;;5061856;28;20504;-65
2021/03/22 10:23:52;;;;;;;2.75;0.70;;;10.50;74.10;;;;;;5059242;28;20082;-65
2021/03/22 10:26:23;;;;;;;1.98;0.55;;;10.60;73.20;;;;;;5053769;28;20033;-65
2021/03/22 10:28:48;;;;;;;1.15;0.95;;;10.60;72.30;;;;;;5054657;28;20468;-65
2021/03/22 10:31:18;;;;;;;4.93;0.77;;;10.60;71.60;;;;;;5053422;28;20040;-65
2021/03/22 10:34:02;;;;;;;4.55;1.02;;;10.60;72.50;;;;;;5057126;28;20028;-65
2021/03/22 10:36:35;;;;;;;2.47;0.68;;;10.70;72.40;;;;;;5055059;28;20437;-65
2021/03/22 10:39:04;;;;;;;1.13;0.40;;;10.70;72.50;;;;;;5054564;28;20094;-65
2021/03/22 10:41:40;;;;;;;6.03;1.25;;;10.80;73.90;;;;;;5053972;28;20411;-65
2021/03/22 10:44:13;;;;;;;4.35;1.35;;;10.80;75.00;;;;;;5069553;28;20025;-65
2021/03/22 10:46:38;;;;;;;3.15;1.20;;;10.70;75.50;;;;;;5067186;28;20027;-65
2021/03/22 10:49:24;;;;;;;2.25;1.08;;;10.80;75.20;;;;;;5072465;28;20024;-65
2021/03/22 10:51:52;;;;;;;5.10;1.02;;;10.90;75.40;;;;;;5063930;28;20601;-65
2021/03/22 10:54:43;;;;;;;3.08;0.60;;;10.90;75.60;;;;;;5066241;28;20442;-65
2021/03/22 10:57:24;;;;;;;6.43;1.58;;;10.90;75.20;;;;;;5063872;28;20425;-66
2021/03/22 10:59:54;;;;;;;8.07;1.38;;;10.90;75.30;;;;;;5066177;28;20052;-65
2021/03/22 11:02:32;;;;;;;8.75;1.50;;;10.90;75.50;;;;;;5070764;28;20071;-65
2021/03/22 11:05:11;;;;;;;7.05;1.90;;;10.80;75.70;;;;;;5053544;28;20040;-65
2021/03/22 11:07:38;;;;;;;5.78;0.95;;;10.90;75.10;;;;;;5053060;28;20079;-65
2021/03/22 11:10:13;;;;;;;8.27;1.77;;;10.80;75.30;;;;;;5053154;28;20123;-66
2021/03/22 11:12:43;;;;;;;8.75;1.38;;;10.80;74.60;;;;;;5068030;28;20111;-65
2021/03/22 11:15:26;;;;;;;10.32;1.88;;;10.90;75.10;;;;;;5066123;28;20033;-65
2021/03/22 11:17:53;;;;;;;8.65;1.23;;;10.90;76.10;;;;;;5052795;28;20059;-65
2021/03/22 11:20:20;;;;;;;5.18;1.13;;;10.90;77.00;;;;;;5056698;28;20063;-67
2021/03/22 11:22:52;;;;;;;2.70;0.98;;;10.90;76.90;;;;;;5066408;28;20045;-65
2021/03/22 11:25:30;;;;;;;6.38;1.33;;;10.90;76.60;;;;;;5062379;28;20055;-65
2021/03/22 11:28:01;;;;;;;10.40;1.35;;;11.00;76.40;;;;;;5065677;28;20048;-66
2021/03/22 11:30:35;;;;;;;9.07;1.30;;;11.00;76.20;;;;;;5057498;28;20063;-65
2021/03/22 11:33:08;;;;;;;6.50;1.17;;;11.10;76.00;;;;;;5063777;28;20027;-66
2021/03/22 11:35:34;;;;;;;12.27;1.77;;;11.10;76.50;;;;;;5071175;28;20420;-64
2021/03/22 11:38:03;;;;;;;5.25;1.20;;;11.10;75.60;;;;;;5060727;28;20113;-66
2021/03/22 11:40:32;;;;;;;4.50;0.95;;;11.10;75.40;;;;;;5057287;28;20033;-65
2021/03/22 11:43:18;;;;;;;2.20;0.80;;;11.00;74.70;;;;;;5067224;28;20035;-65
2021/03/22 11:45:47;;;;;;;5.50;1.05;;;11.00;75.90;;;;;;5062966;28;20096;-65
2021/03/22 11:48:21;;;;;;;4.93;1.20;;;11.00;75.10;;;;;;5062286;28;20035;-65
2021/03/22 11:51:12;;;;;;;12.10;1.42;;;11.00;75.30;;;;;;5060689;28;20028;-65
2021/03/22 11:54:05;;;;;;;11.57;1.33;;;10.90;75.60;;;;;;5057593;28;20057;-66
2021/03/22 11:56:36;;;;;;;11.93;2.15;;;10.90;75.80;;;;;;5068469;28;20032;-66
2021/03/22 11:59:20;;;;;;;6.88;1.10;;;10.90;75.50;;;;;;5057779;28;20488;-65
2021/03/22 12:02:21;;;;;;;;;;;10.80;74.90;;;;;;5064282;28;20080;-65
2021/03/22 12:04:55;;;;;;;3.60;1.30;;;10.90;75.80;;;;;;5017529;28;19916;-66
2021/03/22 12:07:34;;;;;;;;;;;10.80;75.10;;;;;;5054652;28;20033;-66
2021/03/22 12:10:00;;;;;;;1.25;0.70;;;10.80;76.00;;;;;;5064800;28;19931;-65
2021/03/22 12:12:26;;;;;;;2.85;1.00;;;10.70;77.40;;;;;;5071978;28;20479;-65
2021/03/22 12:14:52;;;;;;;5.50;1.15;;;10.80;75.60;;;;;;5071823;28;20541;-65
2021/03/22 12:17:46;;;;;;;0.90;0.40;;;10.70;76.40;;;;;;5071312;28;20052;-65
2021/03/22 12:20:23;;;;;;;0.70;0.70;;;10.70;77.90;;;;;;5070604;28;20048;-65
2021/03/22 12:22:48;;;;;;;1.75;0.47;;;10.80;78.20;;;;;;5072014;28;20029;-66
2021/03/22 12:25:21;;;;;;;0.50;0.50;;;10.80;78.20;;;;;;5068021;28;20501;-70
2021/03/22 12:27:47;;;;;;;3.22;0.80;;;10.80;78.10;;;;;;5069808;28;20098;-66
2021/03/22 12:30:14;;;;;;;5.35;0.85;;;10.80;76.50;;;;;;5064306;28;20056;-66
2021/03/22 12:32:40;;;;;;;3.30;0.70;;;10.80;75.90;;;;;;5068053;28;20029;-66
2021/03/22 12:35:13;;;;;;;7.07;1.13;;;10.80;73.80;;;;;;5070243;28;20036;-79
2021/03/22 12:37:40;;;;;;;4.65;1.55;;;10.80;71.50;;;;;;5070639;28;20029;-65
2021/03/22 12:40:06;;;;;;;2.67;0.88;;;10.80;70.80;;;;;;5070554;28;20053;-65
2021/03/22 12:42:33;;;;;;;4.38;0.95;;;10.90;70.10;;;;;;5070384;28;20043;-66
2021/03/22 12:45:00;;;;;;;4.90;0.75;;;10.90;69.00;;;;;;5064169;28;20029;-65
2021/03/22 12:47:31;;;;;;;2.05;0.80;;;10.90;68.60;;;;;;5070711;28;20260;-65
2021/03/22 12:49:58;;;;;;;1.50;0.47;;;11.00;68.80;;;;;;5070697;28;20029;-65
2021/03/22 12:52:24;;;;;;;0.52;0.40;;;11.00;68.30;;;;;;5062007;28;20480;-65
2021/03/22 12:54:50;;;;;;;7.00;1.67;;;11.10;68.80;;;;;;5071375;28;20032;-67
2021/03/22 12:57:18;;;;;;;8.52;1.58;;;11.10;68.20;;;;;;5068239;28;20099;-65
2021/03/22 12:59:44;;;;;;;3.60;0.80;;;11.10;68.90;;;;;;5069251;28;20080;-67
2021/03/22 13:02:18;;;;;;;1.55;0.70;;;11.20;71.50;;;;;;5073147;28;20044;-67
2021/03/22 13:04:44;;;;;;;2.58;1.15;;;11.20;69.80;;;;;;5073326;28;20103;-67
2021/03/22 13:07:10;;;;;;;3.95;1.17;;;11.30;71.10;;;;;;5071226;28;20025;-65
2021/03/22 13:09:38;;;;;;;6.25;1.23;;;11.30;71.80;;;;;;5063846;28;20041;-66
2021/03/22 13:12:21;;;;;;;2.80;1.02;;;11.30;73.20;;;;;;5074260;28;20039;-66
2021/03/22 13:14:48;;;;;;;9.23;1.40;;;11.40;72.60;;;;;;5073956;28;20387;-66
2021/03/22 13:17:15;;;;;;;2.58;0.90;;;11.40;71.60;;;;;;5074638;28;20543;-66
2021/03/22 13:19:42;;;;;;;3.10;1.02;;;11.50;72.90;;;;;;5075092;28;20044;-66
2021/03/22 13:22:09;;;;;;;3.78;1.17;;;11.50;72.60;;;;;;5074221;28;20029;-66